sensor_id;sensor_type;location;lat;lon;timestamp;pressure;altitude;pressure_sealevel;temperature;humidity
66560;BME280;53413;49.878;8.142;2024-02-15T00:00:59;100327.56;;;12.59;100.00
66560;BME280;53413;49.878;8.142;2024-02-15T00:03:25;100325.88;;;12.58;100.00
66560;BME280;53413;49.878;8.142;2024-02-15T00:05:50;100330.41;;;12.55;100.00
66560;BME280;53413;49.878;8.142;2024-02-15T00:08:16;100327.97;;;12.50;100.00
66560;BME280;53413;49.878;8.142;2024-02-15T00:10:41;100323.75;;;12.46;100.00
66560;BME280;53413;49.878;8.142;2024-02-15T00:13:06;100322.22;;;12.40;100.00
66560;BME280;53413;49.878;8.142;2024-02-15T00:15:32;100318.94;;;12.35;100.00
66560;BME280;53413;49.878;8.142;2024-02-15T00:17:59;100316.81;;;12.23;100.00
66560;BME280;53413;49.878;8.142;2024-02-15T00:20:25;100322.75;;;12.06;100.00
66560;BME280;53413;49.878;8.142;2024-02-15T00:22:50;100312.78;;;11.90;100.00
66560;BME280;53413;49.878;8.142;2024-02-15T00:25:17;100315.22;;;11.73;100.00
66560;BME280;53413;49.878;8.142;2024-02-15T00:27:45;100320.06;;;11.60;100.00
66560;BME280;53413;49.878;8.142;2024-02-15T00:30:10;100325.66;;;11.50;100.00
66560;BME280;53413;49.878;8.142;2024-02-15T00:32:36;100326.84;;;11.42;100.00
66560;BME280;53413;49.878;8.142;2024-02-15T00:35:02;100321.84;;;11.35;100.00
66560;BME280;53413;49.878;8.142;2024-02-15T00:37:28;100320.34;;;11.28;100.00
66560;BME280;53413;49.878;8.142;2024-02-15T00:39:53;100320.59;;;11.22;100.00
66560;BME280;53413;49.878;8.142;2024-02-15T00:42:18;100319.06;;;11.15;100.00
66560;BME280;53413;49.878;8.142;2024-02-15T00:44:44;100327.00;;;11.13;100.00
66560;BME280;53413;49.878;8.142;2024-02-15T00:47:09;100327.09;;;11.10;100.00
66560;BME280;53413;49.878;8.142;2024-02-15T00:49:36;100321.06;;;11.08;100.00
66560;BME280;53413;49.878;8.142;2024-02-15T00:52:02;100322.03;;;11.05;100.00
66560;BME280;53413;49.878;8.142;2024-02-15T00:54:27;100329.16;;;11.02;100.00
66560;BME280;53413;49.878;8.142;2024-02-15T00:56:52;100323.91;;;11.02;100.00
66560;BME280;53413;49.878;8.142;2024-02-15T00:59:18;100324.97;;;10.96;100.00
66560;BME280;53413;49.878;8.142;2024-02-15T01:01:44;100329.94;;;10.78;100.00
66560;BME280;53413;49.878;8.142;2024-02-15T01:04:10;100327.84;;;10.63;100.00
66560;BME280;53413;49.878;8.142;2024-02-15T01:06:35;100329.16;;;10.50;100.00
66560;BME280;53413;49.878;8.142;2024-02-15T01:09:02;100331.81;;;10.48;100.00
66560;BME280;53413;49.878;8.142;2024-02-15T01:11:29;100332.47;;;10.55;100.00
66560;BME280;53413;49.878;8.142;2024-02-15T01:13:55;100326.94;;;10.64;100.00
66560;BME280;53413;49.878;8.142;2024-02-15T01:16:20;100323.19;;;10.71;100.00
66560;BME280;53413;49.878;8.142;2024-02-15T01:18:47;100328.22;;;10.77;100.00
66560;BME280;53413;49.878;8.142;2024-02-15T01:21:12;100319.28;;;10.83;100.00
66560;BME280;53413;49.878;8.142;2024-02-15T01:23:38;100325.31;;;10.87;100.00
66560;BME280;53413;49.878;8.142;2024-02-15T01:26:04;100321.53;;;10.94;100.00
66560;BME280;53413;49.878;8.142;2024-02-15T01:28:30;100311.75;;;10.99;100.00
66560;BME280;53413;49.878;8.142;2024-02-15T01:30:55;100320.56;;;10.97;100.00
66560;BME280;53413;49.878;8.142;2024-02-15T01:33:20;100306.25;;;10.82;100.00
66560;BME280;53413;49.878;8.142;2024-02-15T01:35:46;100312.91;;;10.65;100.00
66560;BME280;53413;49.878;8.142;2024-02-15T01:38:11;100317.56;;;10.57;100.00
66560;BME280;53413;49.878;8.142;2024-02-15T01:40:37;100320.72;;;10.67;100.00
66560;BME280;53413;49.878;8.142;2024-02-15T01:43:03;100313.28;;;10.80;100.00
66560;BME280;53413;49.878;8.142;2024-02-15T01:45:28;100315.34;;;10.97;100.00
66560;BME280;53413;49.878;8.142;2024-02-15T01:47:54;100322.72;;;11.11;100.00
66560;BME280;53413;49.878;8.142;2024-02-15T01:50:21;100312.56;;;11.25;100.00
66560;BME280;53413;49.878;8.142;2024-02-15T01:52:49;100306.22;;;11.32;100.00
66560;BME280;53413;49.878;8.142;2024-02-15T01:55:17;100309.19;;;11.23;100.00
66560;BME280;53413;49.878;8.142;2024-02-15T01:57:44;100315.88;;;11.06;100.00
66560;BME280;53413;49.878;8.142;2024-02-15T02:00:12;100314.69;;;10.90;100.00
66560;BME280;53413;49.878;8.142;2024-02-15T02:02:39;100316.16;;;10.72;100.00
66560;BME280;53413;49.878;8.142;2024-02-15T02:05:07;100317.66;;;10.54;100.00
66560;BME280;53413;49.878;8.142;2024-02-15T02:07:33;100329.53;;;10.37;100.00
66560;BME280;53413;49.878;8.142;2024-02-15T02:09:58;100330.81;;;10.24;100.00
66560;BME280;53413;49.878;8.142;2024-02-15T02:12:24;100329.47;;;10.10;100.00
66560;BME280;53413;49.878;8.142;2024-02-15T02:14:53;100319.31;;;10.01;100.00
66560;BME280;53413;49.878;8.142;2024-02-15T02:17:19;100327.38;;;9.93;100.00
66560;BME280;53413;49.878;8.142;2024-02-15T02:19:45;100325.19;;;9.79;100.00
66560;BME280;53413;49.878;8.142;2024-02-15T02:22:11;100323.72;;;9.69;100.00
66560;BME280;53413;49.878;8.142;2024-02-15T02:24:44;100318.84;;;9.57;100.00
66560;BME280;53413;49.878;8.142;2024-02-15T02:27:14;100316.50;;;9.47;100.00
66560;BME280;53413;49.878;8.142;2024-02-15T02:29:43;100313.34;;;9.37;100.00
66560;BME280;53413;49.878;8.142;2024-02-15T02:32:11;100323.06;;;9.32;100.00
66560;BME280;53413;49.878;8.142;2024-02-15T02:34:38;100311.09;;;9.23;100.00
66560;BME280;53413;49.878;8.142;2024-02-15T02:37:03;100312.09;;;9.18;100.00
66560;BME280;53413;49.878;8.142;2024-02-15T02:39:31;100311.47;;;9.09;100.00
66560;BME280;53413;49.878;8.142;2024-02-15T02:41:57;100309.88;;;9.04;100.00
66560;BME280;53413;49.878;8.142;2024-02-15T02:44:22;100310.13;;;8.95;100.00
66560;BME280;53413;49.878;8.142;2024-02-15T02:46:47;100306.84;;;8.86;100.00
66560;BME280;53413;49.878;8.142;2024-02-15T02:49:13;100308.03;;;8.74;100.00
66560;BME280;53413;49.878;8.142;2024-02-15T02:51:38;100310.06;;;8.63;100.00
66560;BME280;53413;49.878;8.142;2024-02-15T02:54:03;100310.25;;;8.55;100.00
66560;BME280;53413;49.878;8.142;2024-02-15T02:56:32;100307.78;;;8.49;100.00
66560;BME280;53413;49.878;8.142;2024-02-15T02:58:57;100315.72;;;8.44;100.00
66560;BME280;53413;49.878;8.142;2024-02-15T03:01:23;100316.69;;;8.40;100.00
66560;BME280;53413;49.878;8.142;2024-02-15T03:03:52;100315.72;;;8.44;100.00
66560;BME280;53413;49.878;8.142;2024-02-15T03:06:20;100318.16;;;8.52;100.00
66560;BME280;53413;49.878;8.142;2024-02-15T03:08:46;100311.88;;;8.61;100.00
66560;BME280;53413;49.878;8.142;2024-02-15T03:11:12;100313.41;;;8.68;100.00
66560;BME280;53413;49.878;8.142;2024-02-15T03:13:39;100318.56;;;8.71;100.00
66560;BME280;53413;49.878;8.142;2024-02-15T03:16:05;100312.25;;;8.80;100.00
66560;BME280;53413;49.878;8.142;2024-02-15T03:18:30;100308.56;;;8.87;100.00
66560;BME280;53413;49.878;8.142;2024-02-15T03:20:57;100304.09;;;8.92;100.00
66560;BME280;53413;49.878;8.142;2024-02-15T03:23:22;100298.69;;;8.99;100.00
66560;BME280;53413;49.878;8.142;2024-02-15T03:25:48;100302.94;;;9.03;100.00
66560;BME280;53413;49.878;8.142;2024-02-15T03:28:14;100307.06;;;9.12;100.00
66560;BME280;53413;49.878;8.142;2024-02-15T03:30:41;100306.75;;;9.22;100.00
66560;BME280;53413;49.878;8.142;2024-02-15T03:33:08;100308.19;;;9.33;100.00
66560;BME280;53413;49.878;8.142;2024-02-15T03:35:34;100310.47;;;9.45;100.00
66560;BME280;53413;49.878;8.142;2024-02-15T03:38:00;100304.09;;;9.55;100.00
66560;BME280;53413;49.878;8.142;2024-02-15T03:40:28;100302.09;;;9.64;100.00
66560;BME280;53413;49.878;8.142;2024-02-15T03:42:55;100299.34;;;9.68;100.00
66560;BME280;53413;49.878;8.142;2024-02-15T03:45:21;100300.91;;;9.74;100.00
66560;BME280;53413;49.878;8.142;2024-02-15T03:47:53;100298.88;;;9.84;100.00
66560;BME280;53413;49.878;8.142;2024-02-15T03:50:19;100296.94;;;9.91;100.00
66560;BME280;53413;49.878;8.142;2024-02-15T03:52:46;100294.16;;;9.95;100.00
66560;BME280;53413;49.878;8.142;2024-02-15T03:55:12;100287.06;;;9.99;100.00
66560;BME280;53413;49.878;8.142;2024-02-15T03:57:38;100283.47;;;10.03;100.00
66560;BME280;53413;49.878;8.142;2024-02-15T04:00:06;100297.25;;;10.08;100.00
66560;BME280;53413;49.878;8.142;2024-02-15T04:02:33;100290.97;;;10.14;100.00
66560;BME280;53413;49.878;8.142;2024-02-15T04:05:00;100295.91;;;10.23;100.00
66560;BME280;53413;49.878;8.142;2024-02-15T04:07:26;100301.00;;;10.28;100.00
66560;BME280;53413;49.878;8.142;2024-02-15T04:09:52;100297.59;;;10.26;100.00
66560;BME280;53413;49.878;8.142;2024-02-15T04:12:17;100295.88;;;10.25;100.00
66560;BME280;53413;49.878;8.142;2024-02-15T04:14:44;100300.88;;;10.31;100.00
66560;BME280;53413;49.878;8.142;2024-02-15T04:17:10;100295.56;;;10.34;100.00
66560;BME280;53413;49.878;8.142;2024-02-15T04:19:36;100306.03;;;10.34;100.00
66560;BME280;53413;49.878;8.142;2024-02-15T04:22:02;100293.78;;;10.35;100.00
66560;BME280;53413;49.878;8.142;2024-02-15T04:24:32;100292.84;;;10.37;100.00
66560;BME280;53413;49.878;8.142;2024-02-15T04:26:58;100305.66;;;10.46;100.00
66560;BME280;53413;49.878;8.142;2024-02-15T04:29:24;100295.09;;;10.50;100.00
66560;BME280;53413;49.878;8.142;2024-02-15T04:31:49;100297.41;;;10.59;100.00
66560;BME280;53413;49.878;8.142;2024-02-15T04:34:15;100284.84;;;10.69;100.00
66560;BME280;53413;49.878;8.142;2024-02-15T04:36:43;100288.88;;;10.79;100.00
66560;BME280;53413;49.878;8.142;2024-02-15T04:39:10;100279.22;;;10.80;100.00
66560;BME280;53413;49.878;8.142;2024-02-15T04:41:37;100273.06;;;10.81;100.00
66560;BME280;53413;49.878;8.142;2024-02-15T04:44:04;100270.44;;;10.81;100.00
66560;BME280;53413;49.878;8.142;2024-02-15T04:46:30;100276.50;;;10.83;100.00
66560;BME280;53413;49.878;8.142;2024-02-15T04:48:56;100270.25;;;10.87;100.00
66560;BME280;53413;49.878;8.142;2024-02-15T04:51:23;100263.97;;;10.91;100.00
66560;BME280;53413;49.878;8.142;2024-02-15T04:53:48;100264.59;;;10.98;100.00
66560;BME280;53413;49.878;8.142;2024-02-15T04:56:14;100267.88;;;11.04;100.00
66560;BME280;53413;49.878;8.142;2024-02-15T04:58:41;100270.28;;;11.11;100.00
66560;BME280;53413;49.878;8.142;2024-02-15T05:01:14;100274.44;;;11.16;100.00
66560;BME280;53413;49.878;8.142;2024-02-15T05:03:40;100266.41;;;11.21;100.00
66560;BME280;53413;49.878;8.142;2024-02-15T05:06:05;100268.78;;;11.27;100.00
66560;BME280;53413;49.878;8.142;2024-02-15T05:08:33;100273.13;;;11.28;100.00
66560;BME280;53413;49.878;8.142;2024-02-15T05:11:01;100266.16;;;11.27;100.00
66560;BME280;53413;49.878;8.142;2024-02-15T05:13:29;100264.44;;;11.26;100.00
66560;BME280;53413;49.878;8.142;2024-02-15T05:15:55;100269.59;;;11.29;100.00
66560;BME280;53413;49.878;8.142;2024-02-15T05:18:20;100268.69;;;11.30;100.00
66560;BME280;53413;49.878;8.142;2024-02-15T05:20:46;100263.53;;;11.27;100.00
66560;BME280;53413;49.878;8.142;2024-02-15T05:23:11;100270.50;;;11.28;100.00
66560;BME280;53413;49.878;8.142;2024-02-15T05:25:37;100268.94;;;11.24;100.00
66560;BME280;53413;49.878;8.142;2024-02-15T05:28:03;100263.81;;;11.19;100.00
66560;BME280;53413;49.878;8.142;2024-02-15T05:30:31;100260.28;;;11.20;100.00
66560;BME280;53413;49.878;8.142;2024-02-15T05:32:57;100258.44;;;11.24;100.00
66560;BME280;53413;49.878;8.142;2024-02-15T05:35:23;100270.47;;;11.30;100.00
66560;BME280;53413;49.878;8.142;2024-02-15T05:37:49;100261.66;;;11.31;100.00
66560;BME280;53413;49.878;8.142;2024-02-15T05:40:17;100260.09;;;11.25;100.00
66560;BME280;53413;49.878;8.142;2024-02-15T05:42:44;100261.91;;;11.24;100.00
66560;BME280;53413;49.878;8.142;2024-02-15T05:47:50;100267.53;;;11.37;100.00
66560;BME280;53413;49.878;8.142;2024-02-15T05:50:15;100262.13;;;11.42;100.00
66560;BME280;53413;49.878;8.142;2024-02-15T05:52:40;100279.34;;;11.49;100.00
66560;BME280;53413;49.878;8.142;2024-02-15T05:55:07;100261.78;;;11.51;100.00
66560;BME280;53413;49.878;8.142;2024-02-15T05:57:32;100272.22;;;11.53;100.00
66560;BME280;53413;49.878;8.142;2024-02-15T05:59:58;100274.00;;;11.52;100.00
66560;BME280;53413;49.878;8.142;2024-02-15T06:02:27;100267.25;;;11.45;100.00
66560;BME280;53413;49.878;8.142;2024-02-15T06:04:52;100260.91;;;11.51;100.00
66560;BME280;53413;49.878;8.142;2024-02-15T06:07:19;100268.75;;;11.52;100.00
66560;BME280;53413;49.878;8.142;2024-02-15T06:09:46;100264.22;;;11.56;100.00
66560;BME280;53413;49.878;8.142;2024-02-15T06:12:11;100269.03;;;11.45;100.00
66560;BME280;53413;49.878;8.142;2024-02-15T06:14:37;100271.31;;;11.30;100.00
66560;BME280;53413;49.878;8.142;2024-02-15T06:17:02;100273.00;;;11.31;100.00
66560;BME280;53413;49.878;8.142;2024-02-15T06:19:28;100275.63;;;11.31;100.00
66560;BME280;53413;49.878;8.142;2024-02-15T06:21:53;100269.69;;;11.26;100.00
66560;BME280;53413;49.878;8.142;2024-02-15T06:24:18;100262.91;;;11.20;100.00
66560;BME280;53413;49.878;8.142;2024-02-15T06:26:44;100255.09;;;11.19;100.00
66560;BME280;53413;49.878;8.142;2024-02-15T06:29:10;100251.47;;;11.23;100.00
66560;BME280;53413;49.878;8.142;2024-02-15T06:31:55;100246.16;;;11.24;100.00
66560;BME280;53413;49.878;8.142;2024-02-15T06:34:39;100235.72;;;11.23;100.00
66560;BME280;53413;49.878;8.142;2024-02-15T06:37:36;100240.53;;;11.12;100.00
66560;BME280;53413;49.878;8.142;2024-02-15T06:40:20;100240.66;;;11.07;100.00
66560;BME280;53413;49.878;8.142;2024-02-15T06:42:46;100241.72;;;11.03;100.00
66560;BME280;53413;49.878;8.142;2024-02-15T06:45:11;100235.72;;;10.99;100.00
66560;BME280;53413;49.878;8.142;2024-02-15T06:47:41;100235.94;;;10.93;100.00
66560;BME280;53413;49.878;8.142;2024-02-15T06:50:07;100244.03;;;10.87;100.00
66560;BME280;53413;49.878;8.142;2024-02-15T06:52:34;100246.44;;;10.68;100.00
66560;BME280;53413;49.878;8.142;2024-02-15T06:54:59;100248.31;;;10.64;100.00
66560;BME280;53413;49.878;8.142;2024-02-15T06:57:25;100249.09;;;10.66;100.00
66560;BME280;53413;49.878;8.142;2024-02-15T06:59:51;100245.69;;;10.64;100.00
66560;BME280;53413;49.878;8.142;2024-02-15T07:02:17;100248.16;;;10.69;100.00
66560;BME280;53413;49.878;8.142;2024-02-15T07:04:44;100250.47;;;10.76;100.00
66560;BME280;53413;49.878;8.142;2024-02-15T07:07:10;100259.13;;;10.80;100.00
66560;BME280;53413;49.878;8.142;2024-02-15T07:09:35;100257.13;;;10.87;100.00
66560;BME280;53413;49.878;8.142;2024-02-15T07:12:00;100243.00;;;10.91;100.00
66560;BME280;53413;49.878;8.142;2024-02-15T07:14:26;100263.75;;;10.97;100.00
66560;BME280;53413;49.878;8.142;2024-02-15T07:16:53;100261.03;;;11.00;100.00
66560;BME280;53413;49.878;8.142;2024-02-15T07:19:21;100265.25;;;11.04;100.00
66560;BME280;53413;49.878;8.142;2024-02-15T07:21:47;100257.94;;;11.13;100.00
66560;BME280;53413;49.878;8.142;2024-02-15T07:24:12;100268.44;;;11.13;100.00
66560;BME280;53413;49.878;8.142;2024-02-15T07:26:38;100264.75;;;11.18;100.00
66560;BME280;53413;49.878;8.142;2024-02-15T07:29:04;100262.72;;;11.25;100.00
66560;BME280;53413;49.878;8.142;2024-02-15T07:31:33;100270.94;;;11.39;100.00
66560;BME280;53413;49.878;8.142;2024-02-15T07:33:58;100265.34;;;11.49;100.00
66560;BME280;53413;49.878;8.142;2024-02-15T07:36:24;100261.13;;;11.68;100.00
66560;BME280;53413;49.878;8.142;2024-02-15T07:38:51;100257.09;;;11.82;100.00
66560;BME280;53413;49.878;8.142;2024-02-15T07:41:20;100257.31;;;11.99;100.00
66560;BME280;53413;49.878;8.142;2024-02-15T07:43:47;100266.41;;;12.13;100.00
66560;BME280;53413;49.878;8.142;2024-02-15T07:46:14;100269.44;;;12.24;100.00
66560;BME280;53413;49.878;8.142;2024-02-15T07:48:44;100270.78;;;12.35;100.00
66560;BME280;53413;49.878;8.142;2024-02-15T07:51:15;100272.88;;;12.47;100.00
66560;BME280;53413;49.878;8.142;2024-02-15T07:53:41;100268.19;;;12.55;100.00
66560;BME280;53413;49.878;8.142;2024-02-15T07:56:08;100273.84;;;12.67;100.00
66560;BME280;53413;49.878;8.142;2024-02-15T07:58:38;100282.13;;;12.78;100.00
66560;BME280;53413;49.878;8.142;2024-02-15T08:01:04;100287.88;;;12.86;100.00
66560;BME280;53413;49.878;8.142;2024-02-15T08:03:30;100285.94;;;12.91;100.00
66560;BME280;53413;49.878;8.142;2024-02-15T08:05:56;100283.94;;;12.97;100.00
66560;BME280;53413;49.878;8.142;2024-02-15T08:08:21;100279.97;;;13.07;100.00
66560;BME280;53413;49.878;8.142;2024-02-15T08:10:46;100288.25;;;13.18;100.00
66560;BME280;53413;49.878;8.142;2024-02-15T08:13:14;100286.56;;;13.36;100.00
66560;BME280;53413;49.878;8.142;2024-02-15T08:15:40;100280.41;;;13.57;100.00
66560;BME280;53413;49.878;8.142;2024-02-15T08:18:05;100273.50;;;13.73;100.00
66560;BME280;53413;49.878;8.142;2024-02-15T08:20:34;100275.44;;;13.89;100.00
66560;BME280;53413;49.878;8.142;2024-02-15T08:22:59;100276.84;;;14.13;100.00
66560;BME280;53413;49.878;8.142;2024-02-15T08:25:25;100271.63;;;14.49;100.00
66560;BME280;53413;49.878;8.142;2024-02-15T08:27:50;100274.53;;;14.79;100.00
66560;BME280;53413;49.878;8.142;2024-02-15T08:30:16;100274.13;;;15.20;100.00
66560;BME280;53413;49.878;8.142;2024-02-15T08:32:43;100266.31;;;15.51;100.00
66560;BME280;53413;49.878;8.142;2024-02-15T08:35:09;100266.00;;;15.73;100.00
66560;BME280;53413;49.878;8.142;2024-02-15T08:37:35;100268.56;;;15.91;100.00
66560;BME280;53413;49.878;8.142;2024-02-15T08:40:03;100262.53;;;16.19;100.00
66560;BME280;53413;49.878;8.142;2024-02-15T08:42:29;100248.53;;;16.64;100.00
66560;BME280;53413;49.878;8.142;2024-02-15T08:44:55;100259.88;;;16.80;100.00
66560;BME280;53413;49.878;8.142;2024-02-15T08:47:20;100257.44;;;16.77;100.00
66560;BME280;53413;49.878;8.142;2024-02-15T08:49:46;100254.28;;;16.70;100.00
66560;BME280;53413;49.878;8.142;2024-02-15T08:52:11;100263.97;;;16.55;100.00
66560;BME280;53413;49.878;8.142;2024-02-15T08:54:37;100255.75;;;16.60;100.00
66560;BME280;53413;49.878;8.142;2024-02-15T08:57:06;100256.63;;;16.60;100.00
66560;BME280;53413;49.878;8.142;2024-02-15T08:59:31;100252.66;;;16.68;100.00
66560;BME280;53413;49.878;8.142;2024-02-15T09:01:56;100260.50;;;17.00;100.00
66560;BME280;53413;49.878;8.142;2024-02-15T09:04:22;100257.47;;;17.35;100.00
66560;BME280;53413;49.878;8.142;2024-02-15T09:06:50;100257.28;;;17.80;100.00
66560;BME280;53413;49.878;8.142;2024-02-15T09:09:16;100261.22;;;18.02;96.62
66560;BME280;53413;49.878;8.142;2024-02-15T09:11:41;100256.69;;;18.17;97.51
66560;BME280;53413;49.878;8.142;2024-02-15T09:14:07;100257.94;;;18.51;95.45
66560;BME280;53413;49.878;8.142;2024-02-15T09:16:35;100248.56;;;18.99;93.69
66560;BME280;53413;49.878;8.142;2024-02-15T09:19:01;100242.13;;;18.88;90.83
66560;BME280;53413;49.878;8.142;2024-02-15T09:21:27;100247.34;;;18.64;91.16
66560;BME280;53413;49.878;8.142;2024-02-15T09:23:54;100247.34;;;18.51;92.48
66560;BME280;53413;49.878;8.142;2024-02-15T09:26:19;100243.19;;;18.60;92.67
66560;BME280;53413;49.878;8.142;2024-02-15T09:28:45;100242.03;;;18.64;91.98
66560;BME280;53413;49.878;8.142;2024-02-15T09:31:12;100243.97;;;18.75;91.69
66560;BME280;53413;49.878;8.142;2024-02-15T09:33:39;100241.09;;;18.91;91.39
66560;BME280;53413;49.878;8.142;2024-02-15T09:36:04;100244.81;;;19.01;89.60
66560;BME280;53413;49.878;8.142;2024-02-15T09:38:30;100246.00;;;19.10;89.94
66560;BME280;53413;49.878;8.142;2024-02-15T09:40:55;100246.31;;;19.05;89.05
66560;BME280;53413;49.878;8.142;2024-02-15T09:43:21;100239.81;;;19.22;88.35
66560;BME280;53413;49.878;8.142;2024-02-15T09:45:47;100232.41;;;20.60;84.04
66560;BME280;53413;49.878;8.142;2024-02-15T09:48:15;100233.66;;;22.24;77.54
66560;BME280;53413;49.878;8.142;2024-02-15T09:50:45;100230.19;;;25.23;66.54
66560;BME280;53413;49.878;8.142;2024-02-15T09:53:12;100235.69;;;25.31;63.16
66560;BME280;53413;49.878;8.142;2024-02-15T09:55:39;100230.81;;;24.79;61.54
66560;BME280;53413;49.878;8.142;2024-02-15T09:58:07;100232.41;;;24.42;62.84
66560;BME280;53413;49.878;8.142;2024-02-15T10:00:33;100232.56;;;24.31;62.34
66560;BME280;53413;49.878;8.142;2024-02-15T10:03:00;100234.09;;;25.66;59.21
66560;BME280;53413;49.878;8.142;2024-02-15T10:05:27;100226.84;;;27.18;56.41
66560;BME280;53413;49.878;8.142;2024-02-15T10:07:53;100231.28;;;27.35;53.78
66560;BME280;53413;49.878;8.142;2024-02-15T10:10:25;100235.47;;;25.88;55.97
66560;BME280;53413;49.878;8.142;2024-02-15T10:12:54;100227.56;;;24.75;58.34
66560;BME280;53413;49.878;8.142;2024-02-15T10:15:37;100231.13;;;23.67;60.74
66560;BME280;53413;49.878;8.142;2024-02-15T10:18:09;100235.34;;;22.88;62.59
66560;BME280;53413;49.878;8.142;2024-02-15T10:20:38;100229.50;;;22.31;64.61
66560;BME280;53413;49.878;8.142;2024-02-15T10:25:34;100222.22;;;21.57;66.64
66560;BME280;53413;49.878;8.142;2024-02-15T10:28:02;100224.44;;;21.29;67.29
66560;BME280;53413;49.878;8.142;2024-02-15T10:30:32;100212.63;;;20.99;67.25
66560;BME280;53413;49.878;8.142;2024-02-15T10:32:57;100213.47;;;20.52;70.20
66560;BME280;53413;49.878;8.142;2024-02-15T10:35:23;100213.75;;;20.49;71.25
66560;BME280;53413;49.878;8.142;2024-02-15T10:37:49;100196.75;;;20.39;71.10
66560;BME280;53413;49.878;8.142;2024-02-15T10:40:19;100202.38;;;20.11;71.71
66560;BME280;53413;49.878;8.142;2024-02-15T10:42:47;100196.06;;;20.01;71.75
66560;BME280;53413;49.878;8.142;2024-02-15T10:45:14;100198.13;;;19.60;73.78
66560;BME280;53413;49.878;8.142;2024-02-15T10:47:40;100193.22;;;19.67;74.33
66560;BME280;53413;49.878;8.142;2024-02-15T10:50:07;100201.56;;;19.49;74.89
66560;BME280;53413;49.878;8.142;2024-02-15T10:52:37;100194.13;;;19.54;75.34
66560;BME280;53413;49.878;8.142;2024-02-15T10:55:08;100194.84;;;19.57;75.88
66560;BME280;53413;49.878;8.142;2024-02-15T10:57:39;100194.66;;;19.10;76.22
66560;BME280;53413;49.878;8.142;2024-02-15T11:00:11;100189.88;;;18.89;77.70
66560;BME280;53413;49.878;8.142;2024-02-15T11:02:53;100185.22;;;18.67;78.46
66560;BME280;53413;49.878;8.142;2024-02-15T11:05:19;100178.00;;;18.69;80.02
66560;BME280;53413;49.878;8.142;2024-02-15T11:07:49;100176.81;;;18.86;79.49
66560;BME280;53413;49.878;8.142;2024-02-15T11:10:14;100173.75;;;18.92;80.12
66560;BME280;53413;49.878;8.142;2024-02-15T11:12:42;100164.63;;;18.96;79.35
66560;BME280;53413;49.878;8.142;2024-02-15T11:15:09;100171.31;;;18.63;80.12
66560;BME280;53413;49.878;8.142;2024-02-15T11:20:09;100155.38;;;18.89;80.47
66560;BME280;53413;49.878;8.142;2024-02-15T11:22:39;100151.63;;;18.91;80.47
66560;BME280;53413;49.878;8.142;2024-02-15T11:25:05;100152.84;;;18.74;80.28
66560;BME280;53413;49.878;8.142;2024-02-15T11:27:37;100148.28;;;18.76;81.45
66560;BME280;53413;49.878;8.142;2024-02-15T11:30:04;100152.00;;;18.61;81.00
66560;BME280;53413;49.878;8.142;2024-02-15T11:35:11;100142.03;;;18.26;83.80
66560;BME280;53413;49.878;8.142;2024-02-15T11:40:27;100135.34;;;18.33;84.40
66560;BME280;53413;49.878;8.142;2024-02-15T11:45:19;100126.63;;;18.44;85.04
66560;BME280;53413;49.878;8.142;2024-02-15T11:47:53;100130.34;;;18.54;83.80
66560;BME280;53413;49.878;8.142;2024-02-15T11:50:20;100127.16;;;18.75;83.58
66560;BME280;53413;49.878;8.142;2024-02-15T11:52:50;100125.34;;;18.75;81.90
66560;BME280;53413;49.878;8.142;2024-02-15T11:55:20;100124.16;;;18.80;82.49
66560;BME280;53413;49.878;8.142;2024-02-15T12:00:28;100116.94;;;18.95;82.09
66560;BME280;53413;49.878;8.142;2024-02-15T12:03:14;100114.78;;;18.87;81.94
66560;BME280;53413;49.878;8.142;2024-02-15T12:05:58;100112.25;;;18.85;81.35
66560;BME280;53413;49.878;8.142;2024-02-15T12:08:46;100111.13;;;18.64;82.08
66560;BME280;53413;49.878;8.142;2024-02-15T12:11:31;100101.03;;;18.69;82.38
66560;BME280;53413;49.878;8.142;2024-02-15T12:14:16;100097.16;;;18.86;82.16
66560;BME280;53413;49.878;8.142;2024-02-15T12:17:10;100101.63;;;18.98;82.53
66560;BME280;53413;49.878;8.142;2024-02-15T12:19:56;100092.16;;;19.07;81.73
66560;BME280;53413;49.878;8.142;2024-02-15T12:22:35;100090.13;;;19.11;81.43
66560;BME280;53413;49.878;8.142;2024-02-15T12:25:03;100090.53;;;19.17;81.62
66560;BME280;53413;49.878;8.142;2024-02-15T12:27:46;100076.00;;;19.10;81.76
66560;BME280;53413;49.878;8.142;2024-02-15T12:30:15;100079.66;;;18.96;80.37
66560;BME280;53413;49.878;8.142;2024-02-15T12:32:40;100088.47;;;18.84;80.15
66560;BME280;53413;49.878;8.142;2024-02-15T12:35:10;100082.66;;;18.79;79.61
66560;BME280;53413;49.878;8.142;2024-02-15T12:37:41;100081.16;;;18.87;79.86
66560;BME280;53413;49.878;8.142;2024-02-15T12:40:19;100079.31;;;18.88;79.04
66560;BME280;53413;49.878;8.142;2024-02-15T12:42:47;100073.16;;;19.00;79.08
66560;BME280;53413;49.878;8.142;2024-02-15T12:45:17;100073.63;;;18.94;79.40
66560;BME280;53413;49.878;8.142;2024-02-15T12:47:52;100066.88;;;19.01;78.62
66560;BME280;53413;49.878;8.142;2024-02-15T12:50:19;100065.09;;;18.89;79.93
66560;BME280;53413;49.878;8.142;2024-02-15T12:52:48;100067.00;;;18.87;80.25
66560;BME280;53413;49.878;8.142;2024-02-15T12:55:21;100073.63;;;18.94;78.23
66560;BME280;53413;49.878;8.142;2024-02-15T12:57:51;100066.78;;;19.03;78.06
66560;BME280;53413;49.878;8.142;2024-02-15T13:00:24;100063.16;;;19.04;78.18
66560;BME280;53413;49.878;8.142;2024-02-15T13:02:54;100060.34;;;18.94;76.61
66560;BME280;53413;49.878;8.142;2024-02-15T13:05:21;100060.63;;;18.89;77.18